Time;durP1;ratioP1;P1;durP2;ratioP2;P2;SDS_P1;SDS_P2;PMS_P1;PMS_P2;Temp;Humidity;BMP_temperature;BMP_pressure;BME280_temperature;BME280_humidity;BME280_pressure;Samples;Min_cycle;Max_cycle;Signal;HPM_P1;HPM_P2
2022/07/21 00:02:00;;;;;;;5.70;2.50;;;;;;;18.50;50.84;101645.13;4969815;28;20497;-79
2022/07/21 00:04:26;;;;;;;8.55;3.03;;;;;;;18.42;50.73;101645.56;4970831;28;20068;-78
2022/07/21 00:06:52;;;;;;;10.88;3.47;;;;;;;18.48;50.86;101645.19;4959420;28;20795;-78
2022/07/21 00:09:17;;;;;;;7.72;2.63;;;;;;;18.41;50.62;101649.19;4979064;28;20023;-77
2022/07/21 00:11:43;;;;;;;7.18;2.63;;;;;;;18.59;50.35;101643.72;4976578;28;20496;-79
2022/07/21 00:14:09;;;;;;;9.10;3.00;;;;;;;18.62;50.81;101630.25;4977375;28;20084;-77
2022/07/21 00:16:36;;;;;;;9.65;3.15;;;;;;;18.65;50.18;101632.72;4975812;28;20555;-78
2022/07/21 00:19:01;;;;;;;9.32;3.45;;;;;;;18.49;50.45;101635.47;4974046;28;20118;-79
2022/07/21 00:21:28;;;;;;;7.78;2.83;;;;;;;18.38;51.00;101628.19;4974929;28;20667;-79
2022/07/21 00:23:53;;;;;;;8.75;2.45;;;;;;;18.31;51.01;101626.84;4985146;28;20053;-77
2022/07/21 00:26:19;;;;;;;12.85;3.10;;;;;;;18.34;51.01;101629.34;4978810;28;20809;-77
2022/07/21 00:28:45;;;;;;;10.68;2.72;;;;;;;18.34;51.06;101620.53;4978825;28;20046;-76
2022/07/21 00:31:10;;;;;;;9.32;2.75;;;;;;;18.22;51.05;101616.84;4976030;28;20049;-78
2022/07/21 00:33:36;;;;;;;6.43;2.80;;;;;;;18.17;51.29;101613.59;4958687;28;20066;-78
2022/07/21 00:36:01;;;;;;;6.47;2.90;;;;;;;18.00;51.89;101611.94;4977350;28;20125;-77
2022/07/21 00:38:27;;;;;;;6.20;2.45;;;;;;;18.20;51.47;101613.44;4971291;28;20050;-76
2022/07/21 00:40:54;;;;;;;6.07;2.70;;;;;;;18.08;51.25;101611.50;4973121;28;20035;-77
2022/07/21 00:43:19;;;;;;;10.73;3.65;;;;;;;18.00;51.28;101614.59;4978691;28;20129;-77
2022/07/21 00:45:45;;;;;;;4.60;2.80;;;;;;;18.32;50.89;101618.00;4974605;28;20102;-77
2022/07/21 00:48:10;;;;;;;8.20;3.40;;;;;;;18.30;50.73;101625.16;4960486;28;20058;-78
2022/07/21 00:50:36;;;;;;;6.85;2.20;;;;;;;18.23;51.24;101621.19;4971547;28;20110;-79
2022/07/21 00:53:01;;;;;;;11.93;3.03;;;;;;;18.21;50.70;101626.56;4961209;28;20035;-76
2022/07/21 00:55:27;;;;;;;4.22;2.58;;;;;;;18.30;50.88;101629.63;4973890;28;20041;-76
2022/07/21 00:57:53;;;;;;;7.70;3.13;;;;;;;18.43;50.60;101625.25;4973547;28;20139;-78
2022/07/21 01:00:27;;;;;;;9.35;4.60;;;;;;;18.34;50.50;101636.41;4980345;28;20043;-78
2022/07/21 01:02:53;;;;;;;5.65;3.08;;;;;;;18.23;50.56;101634.44;4970860;28;20404;-78
2022/07/21 01:05:19;;;;;;;9.48;3.40;;;;;;;17.98;50.93;101635.00;4970938;28;20027;-76
2022/07/21 01:07:50;;;;;;;5.95;3.58;;;;;;;18.36;50.54;101639.81;4970891;28;20050;-77
2022/07/21 01:10:17;;;;;;;8.38;4.50;;;;;;;18.13;50.75;101633.25;4963559;28;20026;-78
2022/07/21 01:12:44;;;;;;;10.25;4.05;;;;;;;18.28;50.84;101635.00;4976065;28;20224;-78
2022/07/21 01:15:12;;;;;;;13.90;5.00;;;;;;;18.27;50.92;101643.84;4964048;28;20035;-78
2022/07/21 01:17:38;;;;;;;5.03;3.60;;;;;;;18.42;50.51;101653.50;4971537;28;20195;-77
2022/07/21 01:20:07;;;;;;;15.73;4.00;;;;;;;18.51;50.26;101659.19;4977106;28;20452;-77
2022/07/21 01:22:35;;;;;;;9.63;4.05;;;;;;;18.50;50.15;101683.94;4956466;28;20038;-76
2022/07/21 01:25:00;;;;;;;9.68;4.20;;;;;;;18.24;50.97;101747.25;4959045;28;20167;-76
2022/07/21 01:27:27;;;;;;;7.18;4.15;;;;;;;17.72;52.52;101845.41;4987324;28;20551;-78
2022/07/21 01:29:53;;;;;;;8.07;3.53;;;;;;;17.11;55.16;101882.03;4971182;28;20034;-76
2022/07/21 01:32:19;;;;;;;11.35;4.65;;;;;;;16.72;57.08;101906.03;4971728;28;20042;-77
2022/07/21 01:34:44;;;;;;;8.30;4.15;;;;;;;17.07;55.63;101911.34;4985392;28;20034;-77
2022/07/21 01:37:10;;;;;;;13.52;4.78;;;;;;;16.59;57.70;101882.03;4972875;28;20038;-77
2022/07/21 01:42:19;;;;;;;13.75;5.90;;;;;;;16.09;60.44;101891.47;4978788;28;20790;-80
2022/07/21 01:44:45;;;;;;;13.05;6.07;;;;;;;15.99;62.19;101892.78;4977421;28;20145;-78
2022/07/21 01:47:10;;;;;;;13.40;6.72;;;;;;;16.12;61.99;101843.84;4971987;28;20110;-78
2022/07/21 01:49:36;;;;;;;12.70;6.22;;;;;;;16.41;60.67;101791.44;4975085;28;20033;-80
2022/07/21 01:52:02;;;;;;;12.05;6.78;;;;;;;16.64;60.59;101785.00;4975834;28;20357;-80
2022/07/21 01:54:27;;;;;;;14.63;6.60;;;;;;;16.80;59.85;101767.47;4987071;28;20037;-78
2022/07/21 01:56:53;;;;;;;12.77;6.57;;;;;;;16.91;59.70;101750.19;4974999;28;20034;-78
2022/07/21 01:59:18;;;;;;;13.07;6.53;;;;;;;16.88;59.40;101705.50;4978934;28;20031;-80
2022/07/21 02:01:44;;;;;;;15.18;7.43;;;;;;;16.74;60.06;101661.31;4979149;28;20034;-79
2022/07/21 02:04:09;;;;;;;13.20;7.78;;;;;;;16.76;60.08;101599.63;4961568;28;20038;-79
2022/07/21 02:06:35;;;;;;;13.90;7.97;;;;;;;16.46;61.42;101543.19;4954206;28;20034;-80
2022/07/21 02:09:00;;;;;;;9.23;7.60;;;;;;;16.67;60.34;101539.41;4977060;28;20121;-79
2022/07/21 02:11:27;;;;;;;14.50;8.02;;;;;;;16.64;60.44;101552.75;4975334;28;20027;-76
2022/07/21 02:13:55;;;;;;;14.23;9.77;;;;;;;16.65;60.29;101546.53;4976383;28;20042;-80
2022/07/21 02:16:21;;;;;;;14.05;8.23;;;;;;;16.63;59.99;101543.13;4978738;28;20043;-80
2022/07/21 02:18:47;;;;;;;12.48;8.35;;;;;;;16.58;60.09;101551.31;4963743;28;20045;-79
2022/07/21 02:21:12;;;;;;;16.75;9.70;;;;;;;16.47;60.24;101544.91;4976432;28;20038;-79
2022/07/21 02:23:38;;;;;;;13.52;10.85;;;;;;;16.50;59.82;101547.38;4971827;28;20567;-80
2022/07/21 02:26:04;;;;;;;17.48;10.27;;;;;;;16.42;59.86;101556.56;4963356;28;20089;-79
2022/07/21 02:28:29;;;;;;;18.02;9.23;;;;;;;16.61;59.30;101566.97;4955862;28;20038;-78
2022/07/21 02:30:55;;;;;;;13.07;8.93;;;;;;;16.39;59.55;101559.34;4977654;28;20026;-78
2022/07/21 02:33:21;;;;;;;12.80;8.73;;;;;;;16.61;59.47;101568.75;4976517;28;20693;-75
2022/07/21 02:35:47;;;;;;;15.60;10.32;;;;;;;16.66;58.78;101579.91;4971572;28;20026;-77
2022/07/21 02:38:13;;;;;;;14.07;9.25;;;;;;;16.89;58.88;101580.44;4961481;28;20054;-78
2022/07/21 02:40:39;;;;;;;15.00;9.50;;;;;;;16.99;58.54;101582.50;4973849;28;20053;-78
2022/07/21 02:43:05;;;;;;;15.77;10.68;;;;;;;17.14;58.41;101593.16;4960418;28;20049;-78
2022/07/21 02:45:32;;;;;;;19.08;10.55;;;;;;;17.10;58.40;101591.63;4972129;28;20042;-77
2022/07/21 02:47:58;;;;;;;18.30;11.77;;;;;;;17.17;58.03;101579.75;4984365;28;20125;-77
2022/07/21 02:50:28;;;;;;;15.35;11.75;;;;;;;17.22;58.22;101586.50;4969499;28;20615;-76
2022/07/21 02:52:56;;;;;;;19.13;11.93;;;;;;;17.32;58.18;101593.91;4955310;28;20697;-78
2022/07/21 02:55:22;;;;;;;19.13;12.10;;;;;;;17.40;58.06;101594.28;4969979;28;20027;-79
2022/07/21 02:57:47;;;;;;;24.67;12.50;;;;;;;17.30;57.52;101595.78;4956078;28;20053;-79
2022/07/21 03:00:13;;;;;;;16.35;11.13;;;;;;;17.39;57.83;101590.78;4972467;28;20027;-78
2022/07/21 03:02:38;;;;;;;20.60;12.73;;;;;;;17.51;57.90;101581.31;4958845;28;20960;-80
2022/07/21 03:05:04;;;;;;;18.77;13.05;;;;;;;17.58;57.88;101590.63;4963050;28;20041;-77
2022/07/21 03:07:30;;;;;;;17.65;14.18;;;;;;;17.56;57.57;101595.16;4970500;28;20054;-79
2022/07/21 03:09:55;;;;;;;16.52;12.48;;;;;;;17.60;57.79;101591.41;4956986;28;20031;-78
2022/07/21 03:12:21;;;;;;;19.55;13.60;;;;;;;17.61;57.41;101600.16;4954638;28;20051;-78
2022/07/21 03:14:46;;;;;;;18.23;13.57;;;;;;;17.53;57.75;101611.16;4972125;28;20097;-78
2022/07/21 03:17:12;;;;;;;16.05;13.30;;;;;;;17.65;57.93;101628.13;4975765;28;20136;-76
2022/07/21 03:19:37;;;;;;;18.60;13.93;;;;;;;17.73;57.80;101614.44;4957501;28;20027;-77
2022/07/21 03:22:03;;;;;;;23.55;15.27;;;;;;;17.53;58.45;101629.66;4960314;28;20389;-76
2022/07/21 03:24:29;;;;;;;25.27;14.75;;;;;;;17.58;58.33;101632.91;4955389;28;20030;-77
2022/07/21 03:26:55;;;;;;;27.30;15.90;;;;;;;17.54;58.49;101656.97;4959708;28;20061;-78
2022/07/21 03:29:21;;;;;;;22.35;14.10;;;;;;;17.38;58.07;101657.81;4955789;28;20464;-80
2022/07/21 03:31:47;;;;;;;19.65;13.40;;;;;;;17.46;58.55;101646.78;4961606;28;20038;-79
2022/07/21 03:34:12;;;;;;;19.00;12.43;;;;;;;16.96;59.54;101635.50;4954744;28;20034;-78
2022/07/21 03:36:38;;;;;;;25.42;12.68;;;;;;;17.08;59.04;101636.59;4967923;28;20042;-77
2022/07/21 03:39:03;;;;;;;14.57;11.68;;;;;;;17.20;59.27;101638.56;4977000;28;20027;-79
2022/07/21 03:41:29;;;;;;;14.50;10.98;;;;;;;17.23;59.19;101633.09;4959243;28;20038;-77
2022/07/21 03:43:54;;;;;;;14.27;10.55;;;;;;;16.89;60.24;101643.81;4962845;28;20536;-78
2022/07/21 03:46:20;;;;;;;16.25;11.15;;;;;;;17.01;59.79;101628.16;4962249;28;20117;-77
2022/07/21 03:48:45;;;;;;;18.27;11.45;;;;;;;17.00;59.92;101604.47;4961115;28;20042;-79
2022/07/21 03:51:11;;;;;;;23.70;12.77;;;;;;;16.97;59.64;101589.66;4958805;28;20042;-78
2022/07/21 03:53:36;;;;;;;24.08;11.23;;;;;;;16.74;60.71;101597.97;4977224;28;20467;-78
2022/07/21 03:56:02;;;;;;;15.98;10.57;;;;;;;16.91;60.10;101582.09;4985897;28;20575;-78
2022/07/21 03:58:28;;;;;;;17.73;11.93;;;;;;;16.92;60.35;101610.19;4995687;28;20456;-80
2022/07/21 04:00:53;;;;;;;19.65;11.32;;;;;;;17.10;60.04;101605.66;4995837;28;20046;-77
2022/07/21 04:03:19;;;;;;;19.33;12.18;;;;;;;17.03;59.54;101604.31;4994233;28;20034;-80
2022/07/21 04:05:44;;;;;;;14.57;10.88;;;;;;;17.17;59.40;101614.09;4996728;28;20042;-78
2022/07/21 04:08:12;;;;;;;13.85;9.90;;;;;;;17.22;59.51;101605.00;4983417;28;20053;-78
2022/07/21 04:10:38;;;;;;;17.00;11.70;;;;;;;17.26;59.61;101595.09;4991798;28;20022;-78
2022/07/21 04:13:07;;;;;;;17.08;11.45;;;;;;;17.38;59.58;101590.88;4999129;28;20100;-78
2022/07/21 04:15:33;;;;;;;16.15;10.75;;;;;;;17.42;59.15;101592.41;4982704;28;20109;-77
2022/07/21 04:17:59;;;;;;;16.98;12.13;;;;;;;17.32;59.14;101583.31;4991623;28;20053;-79
2022/07/21 04:20:24;;;;;;;13.85;10.70;;;;;;;17.42;59.13;101584.47;5001022;28;20034;-79
2022/07/21 04:22:51;;;;;;;18.88;11.48;;;;;;;17.37;59.22;101586.53;4994901;28;20643;-77
2022/07/21 04:25:18;;;;;;;16.85;11.18;;;;;;;17.34;59.50;101597.31;4979624;28;20113;-78
2022/07/21 04:27:44;;;;;;;19.15;11.18;;;;;;;17.31;59.30;101593.03;4995648;28;20041;-79
2022/07/21 04:30:12;;;;;;;23.00;13.07;;;;;;;17.26;59.65;101578.38;4983561;28;20119;-78
2022/07/21 04:32:38;;;;;;;17.95;12.02;;;;;;;17.31;59.56;101573.69;4992910;28;20132;-80
2022/07/21 04:35:07;;;;;;;16.70;12.07;;;;;;;17.31;59.41;101563.13;4982028;28;20125;-81
2022/07/21 04:37:33;;;;;;;19.73;12.40;;;;;;;17.35;59.44;101560.19;4994223;28;20048;-81
2022/07/21 04:39:59;;;;;;;20.23;12.40;;;;;;;17.40;59.45;101554.66;4993718;28;20030;-78
2022/07/21 04:42:24;;;;;;;23.38;12.70;;;;;;;17.36;59.41;101563.72;4994329;28;20496;-78
2022/07/21 04:44:50;;;;;;;21.35;11.40;;;;;;;17.40;59.29;101570.50;4979981;28;20390;-78
2022/07/21 04:47:15;;;;;;;22.08;11.27;;;;;;;17.42;59.46;101571.25;4984340;28;20056;-81
2022/07/21 04:49:41;;;;;;;17.98;11.20;;;;;;;17.41;58.89;101577.50;4997544;28;20026;-77
2022/07/21 04:52:07;;;;;;;15.10;11.65;;;;;;;17.48;59.42;101576.25;4982133;28;20571;-77
2022/07/21 04:54:32;;;;;;;15.50;11.57;;;;;;;17.47;59.18;101571.88;4983791;28;20036;-77
2022/07/21 04:56:59;;;;;;;16.83;11.55;;;;;;;17.56;59.33;101566.06;4977006;28;20097;-78
2022/07/21 04:59:24;;;;;;;20.13;11.10;;;;;;;17.58;59.34;101556.28;4978260;28;20037;-79
2022/07/21 05:01:50;;;;;;;20.10;11.70;;;;;;;17.63;59.13;101564.78;4982207;28;20037;-82
2022/07/21 05:04:16;;;;;;;19.77;12.68;;;;;;;17.64;58.59;101562.97;4979856;28;20516;-80
2022/07/21 05:06:41;;;;;;;17.77;13.05;;;;;;;17.62;58.53;101573.63;4998764;28;20037;-77
2022/07/21 05:09:07;;;;;;;18.27;12.23;;;;;;;17.58;59.04;101582.69;4982509;28;20014;-80
2022/07/21 05:11:33;;;;;;;19.85;12.02;;;;;;;17.56;59.07;101576.66;4977988;28;20030;-80
2022/07/21 05:13:58;;;;;;;21.60;13.38;;;;;;;17.48;58.68;101578.88;4994090;28;20517;-80
2022/07/21 05:16:24;;;;;;;19.67;12.00;;;;;;;17.51;58.94;101573.41;4978620;28;20110;-77
2022/07/21 05:18:49;;;;;;;21.60;12.95;;;;;;;17.59;59.16;101570.31;4981596;28;20690;-76
2022/07/21 05:21:15;;;;;;;23.75;12.52;;;;;;;17.03;60.02;101567.34;4992772;28;20030;-78
2022/07/21 05:23:41;;;;;;;18.60;12.73;;;;;;;17.45;59.58;101563.19;4973426;28;20049;-74
2022/07/21 05:26:06;;;;;;;24.33;11.85;;;;;;;17.53;58.90;101566.25;4983841;28;20038;-78
2022/07/21 05:28:32;;;;;;;20.30;13.00;;;;;;;17.50;58.71;101566.44;4996943;28;20076;-77
2022/07/21 05:30:58;;;;;;;18.35;12.95;;;;;;;17.57;58.77;101572.22;4998667;28;20443;-80
2022/07/21 05:33:23;;;;;;;21.33;14.00;;;;;;;17.43;58.71;101575.63;4997309;28;20096;-78
2022/07/21 05:35:49;;;;;;;23.00;13.63;;;;;;;17.52;59.33;101569.84;4993454;28;20034;-78
2022/07/21 05:38:14;;;;;;;22.88;13.90;;;;;;;17.47;58.49;101573.63;4995445;28;20766;-77
2022/07/21 05:40:40;;;;;;;20.15;12.82;;;;;;;17.35;59.39;101569.94;4979891;28;20138;-78
2022/07/21 05:43:06;;;;;;;22.65;13.20;;;;;;;17.51;59.21;101578.69;4993611;28;20049;-79
2022/07/21 05:45:31;;;;;;;22.45;13.50;;;;;;;17.42;59.13;101577.41;4993565;28;20273;-78
2022/07/21 05:47:57;;;;;;;18.98;12.93;;;;;;;17.53;59.30;101583.91;5006624;28;20132;-80
2022/07/21 05:50:22;;;;;;;17.95;11.57;;;;;;;17.51;59.33;101583.13;4994209;28;20709;-78
2022/07/21 05:52:48;;;;;;;20.52;13.13;;;;;;;17.76;58.93;101574.59;4993763;28;20050;-78
2022/07/21 05:55:14;;;;;;;19.00;12.35;;;;;;;17.63;59.15;101577.97;4991366;28;20311;-77
2022/07/21 05:57:40;;;;;;;22.35;12.35;;;;;;;17.59;58.68;101575.63;4997666;28;21045;-76
2022/07/21 06:00:06;;;;;;;19.63;13.18;;;;;;;17.57;58.85;101573.06;4980944;28;20033;-77
2022/07/21 06:02:35;;;;;;;17.73;12.38;;;;;;;17.86;58.06;101573.13;4993719;28;20080;-76
2022/07/21 06:05:00;;;;;;;17.30;11.82;;;;;;;17.85;58.09;101576.72;4980592;28;20029;-78
2022/07/21 06:07:26;;;;;;;22.88;12.73;;;;;;;18.09;57.53;101592.03;4995547;28;20038;-77
2022/07/21 06:09:52;;;;;;;20.33;11.27;;;;;;;18.09;57.76;101589.41;4993648;28;20026;-77
2022/07/21 06:12:18;;;;;;;24.02;12.75;;;;;;;18.07;57.77;101581.53;4994693;28;20097;-79
2022/07/21 06:14:44;;;;;;;19.67;11.95;;;;;;;18.03;56.76;101586.19;4978532;28;20041;-79
2022/07/21 06:17:09;;;;;;;20.08;12.60;;;;;;;18.06;57.75;101593.91;4977571;28;20061;-78
2022/07/21 06:19:35;;;;;;;20.90;12.52;;;;;;;17.91;58.07;101584.25;4976046;28;20045;-78
2022/07/21 06:22:02;;;;;;;15.93;11.60;;;;;;;18.11;57.43;101598.09;4978591;28;20638;-78
2022/07/21 06:24:28;;;;;;;21.65;13.75;;;;;;;17.82;57.94;101598.03;4997020;28;20049;-76
2022/07/21 06:26:57;;;;;;;19.13;12.50;;;;;;;17.82;58.01;101598.88;4979416;28;20058;-79
2022/07/21 06:29:23;;;;;;;22.70;13.60;;;;;;;17.80;58.15;101599.91;4988084;28;20168;-78
2022/07/21 06:31:49;;;;;;;19.90;12.07;;;;;;;18.05;57.70;101604.59;4975899;28;20123;-78
2022/07/21 06:34:14;;;;;;;24.13;14.57;;;;;;;18.01;57.93;101608.38;5004018;28;20061;-78
2022/07/21 06:36:40;;;;;;;24.45;13.32;;;;;;;18.09;58.07;101610.56;4993575;28;20444;-78
2022/07/21 06:39:05;;;;;;;21.77;13.30;;;;;;;18.37;58.08;101605.31;4992694;28;20041;-78
2022/07/21 06:41:31;;;;;;;23.42;14.88;;;;;;;17.94;57.38;101607.03;4994676;28;20100;-77
2022/07/21 06:43:57;;;;;;;22.13;15.05;;;;;;;18.22;57.33;101603.59;4989464;28;22156;-80
2022/07/21 06:46:22;;;;;;;27.77;15.15;;;;;;;18.68;56.93;101604.25;5008219;28;20034;-87
2022/07/21 06:48:48;;;;;;;24.70;14.82;;;;;;;19.05;56.16;101599.28;4978113;28;20108;-85
2022/07/21 06:51:14;;;;;;;26.85;14.52;;;;;;;18.91;55.79;101603.78;4962239;28;20045;-86
2022/07/21 06:53:42;;;;;;;22.23;13.93;;;;;;;19.55;54.90;101598.69;4991077;28;20133;-86
2022/07/21 06:56:16;;;;;;;25.27;15.05;;;;;;;19.16;54.86;101609.19;4980048;28;20037;-84
2022/07/21 06:58:47;;;;;;;23.63;14.65;;;;;;;18.93;54.99;101607.19;4992264;28;20045;-82
2022/07/21 07:01:18;;;;;;;21.48;14.25;;;;;;;18.82;56.18;101615.78;4998850;28;20045;-85
2022/07/21 07:03:44;;;;;;;18.63;13.10;;;;;;;19.36;55.28;101612.34;4966766;28;20115;-83
2022/07/21 07:06:11;;;;;;;21.48;14.13;;;;;;;18.98;54.71;101605.06;4981132;28;20030;-81
2022/07/21 07:08:38;;;;;;;22.20;14.27;;;;;;;18.86;55.34;101596.09;4979759;28;20040;-84
2022/07/21 07:11:06;;;;;;;18.42;13.63;;;;;;;18.93;55.72;101599.22;4995108;28;20026;-81
2022/07/21 07:13:32;;;;;;;20.02;12.32;;;;;;;19.14;55.09;101607.59;4955169;28;20230;-79
2022/07/21 07:15:58;;;;;;;18.17;12.93;;;;;;;18.74;56.15;101613.59;4977050;28;20046;-80
2022/07/21 07:18:24;;;;;;;25.65;14.20;;;;;;;18.62;56.14;101617.03;4958638;28;20042;-83
2022/07/21 07:20:51;;;;;;;22.00;13.45;;;;;;;18.65;56.18;101611.53;4960518;28;20038;-79
2022/07/21 07:23:16;;;;;;;21.90;14.98;;;;;;;18.59;55.94;101609.28;4975906;28;20073;-81
2022/07/21 07:25:42;;;;;;;23.15;15.00;;;;;;;18.81;55.88;101604.34;4978148;28;20034;-85
2022/07/21 07:28:08;;;;;;;21.75;14.30;;;;;;;18.93;54.95;101607.19;4979663;28;20646;-85
2022/07/21 07:30:35;;;;;;;21.98;12.77;;;;;;;19.20;54.58;101594.78;5000440;28;20113;-82
2022/07/21 07:33:01;;;;;;;18.50;12.63;;;;;;;18.88;54.67;101600.38;4983578;28;20800;-84
2022/07/21 07:35:27;;;;;;;24.05;13.95;;;;;;;19.29;54.09;101599.47;4997236;28;20038;-84
2022/07/21 07:37:53;;;;;;;24.73;13.52;;;;;;;19.07;54.29;101599.19;4998073;28;20042;-80
2022/07/21 07:40:20;;;;;;;22.27;13.30;;;;;;;19.41;53.95;101594.31;4983180;28;20030;-81
2022/07/21 07:42:46;;;;;;;14.45;10.35;;;;;;;19.75;54.34;101594.72;4983976;28;20048;-84
2022/07/21 07:45:13;;;;;;;18.92;13.43;;;;;;;19.81;53.14;101595.16;4993767;28;20478;-83
2022/07/21 07:47:40;;;;;;;21.55;12.32;;;;;;;19.95;53.44;101599.56;4997748;28;20042;-80
2022/07/21 07:50:08;;;;;;;14.40;11.77;;;;;;;19.88;52.44;101600.91;5000229;28;20029;-79
2022/07/21 07:52:35;;;;;;;17.17;13.15;;;;;;;19.74;51.55;101598.34;4998605;28;20041;-79
2022/07/21 07:55:04;;;;;;;21.25;11.50;;;;;;;19.82;53.24;101601.34;4994954;28;20037;-84
2022/07/21 07:57:30;;;;;;;23.58;13.57;;;;;;;19.89;52.60;101602.63;4993531;28;20041;-82
2022/07/21 07:59:56;;;;;;;18.45;13.30;;;;;;;19.64;51.85;101609.59;4993418;28;20401;-81
2022/07/21 08:02:21;;;;;;;14.68;12.43;;;;;;;19.79;52.66;101610.38;4998981;28;20042;-80
2022/07/21 08:04:46;;;;;;;18.02;12.85;;;;;;;19.44;53.29;101610.03;4996968;28;20068;-79
2022/07/21 08:07:12;;;;;;;22.77;13.00;;;;;;;19.18;53.75;101617.88;4996893;28;20042;-81
2022/07/21 08:09:39;;;;;;;20.27;13.02;;;;;;;19.01;54.71;101621.63;4982228;28;20029;-81
2022/07/21 08:12:05;;;;;;;16.60;12.02;;;;;;;19.40;53.94;101629.75;4963468;28;20049;-85
2022/07/21 08:14:31;;;;;;;18.85;12.90;;;;;;;19.27;53.87;101627.88;4984314;28;20034;-86
2022/07/21 08:16:58;;;;;;;17.88;11.73;;;;;;;19.33;54.13;101629.28;4980845;28;20409;-81
2022/07/21 08:19:24;;;;;;;17.40;12.00;;;;;;;19.52;52.63;101631.56;4961846;28;20038;-83
2022/07/21 08:21:50;;;;;;;18.08;12.27;;;;;;;18.73;54.49;101640.19;4960217;28;20049;-80
2022/07/21 08:24:15;;;;;;;24.35;12.85;;;;;;;18.58;54.65;101650.78;4960329;28;20738;-79
2022/07/21 08:26:41;;;;;;;22.52;13.90;;;;;;;18.96;54.36;101654.66;4960214;28;20074;-80
2022/07/21 08:29:07;;;;;;;17.95;13.35;;;;;;;19.08;54.54;101656.53;4961847;28;20105;-79
2022/07/21 08:31:32;;;;;;;20.23;12.30;;;;;;;19.03;54.28;101655.97;4958882;28;20029;-79
2022/07/21 08:33:58;;;;;;;19.17;12.52;;;;;;;19.32;54.64;101653.22;4972014;28;20045;-79
2022/07/21 08:36:23;;;;;;;19.75;12.00;;;;;;;19.70;53.69;101659.56;4956416;28;20068;-77
2022/07/21 08:38:49;;;;;;;22.20;12.50;;;;;;;19.93;53.21;101662.47;4977218;28;20587;-78
2022/07/21 08:41:14;;;;;;;18.83;13.43;;;;;;;19.84;52.64;101663.09;4957496;28;20100;-79
2022/07/21 08:43:40;;;;;;;17.98;12.52;;;;;;;19.68;52.60;101656.16;4957781;28;20042;-79
2022/07/21 08:46:06;;;;;;;15.73;11.98;;;;;;;19.54;52.65;101652.69;4963546;28;20117;-79
2022/07/21 08:48:31;;;;;;;18.73;11.65;;;;;;;19.20;53.39;101653.09;4959656;28;20046;-77
2022/07/21 08:50:58;;;;;;;16.05;12.15;;;;;;;19.32;53.55;101646.13;4960157;28;20044;-77
2022/07/21 08:53:24;;;;;;;18.45;11.90;;;;;;;19.17;53.96;101648.00;4954401;28;20047;-78
2022/07/21 08:55:49;;;;;;;18.85;12.82;;;;;;;19.06;54.07;101653.97;4960793;28;20252;-77
2022/07/21 08:58:16;;;;;;;14.23;10.18;;;;;;;18.98;54.73;101652.75;4974644;28;20041;-78
2022/07/21 09:00:46;;;;;;;22.48;12.15;;;;;;;18.95;54.92;101651.16;4993092;28;20042;-78
2022/07/21 09:03:19;;;;;;;19.75;12.40;;;;;;;18.91;54.85;101656.75;4989684;28;20042;-78
2022/07/21 09:06:06;;;;;;;17.27;12.77;;;;;;;18.81;55.41;101651.13;4991022;28;20120;-80
2022/07/21 09:08:34;;;;;;;18.10;13.07;;;;;;;18.69;55.48;101658.06;4977090;28;20046;-79
2022/07/21 09:11:23;;;;;;;18.75;13.55;;;;;;;18.78;55.34;101656.63;4989876;28;20080;-77
2022/07/21 09:14:12;;;;;;;17.75;12.80;;;;;;;18.62;56.44;101652.28;4991993;28;20654;-78
2022/07/21 09:16:43;;;;;;;22.90;13.82;;;;;;;18.05;57.15;101658.38;4988766;28;20129;-77
2022/07/21 09:19:24;;;;;;;23.77;15.38;;;;;;;18.43;56.43;101657.88;4991738;28;20687;-78
2022/07/21 09:21:52;;;;;;;23.40;14.38;;;;;;;18.06;57.65;101657.41;4989077;28;20776;-76
2022/07/21 09:24:29;;;;;;;20.05;14.48;;;;;;;18.16;57.64;101655.09;4994257;28;20058;-77
2022/07/21 09:27:03;;;;;;;21.05;15.98;;;;;;;17.71;58.71;101642.75;4989499;28;20321;-78
2022/07/21 09:29:45;;;;;;;19.00;13.77;;;;;;;18.13;57.86;101654.41;4979286;28;20035;-76
2022/07/21 09:32:21;;;;;;;28.45;18.10;;;;;;;18.35;57.98;101657.47;5002064;28;20053;-76
2022/07/21 09:34:53;;;;;;;20.27;15.45;;;;;;;18.58;56.77;101653.41;5001403;28;20472;-77
2022/07/21 09:37:19;;;;;;;;;;;;;;;18.51;56.82;101659.19;4978581;28;20053;-78
2022/07/21 09:39:47;;;;;;;24.23;15.15;;;;;;;18.67;56.32;101658.13;4993763;28;19921;-77
2022/07/21 09:42:28;;;;;;;21.85;15.25;;;;;;;18.42;56.66;101657.97;4978718;28;20113;-77
2022/07/21 09:45:22;;;;;;;22.80;14.88;;;;;;;18.19;56.93;101657.56;4988751;28;20461;-80
2022/07/21 09:47:48;;;;;;;19.70;15.02;;;;;;;18.33;57.28;101656.72;4972649;28;20046;-79
2022/07/21 09:50:17;;;;;;;23.55;16.73;;;;;;;18.40;56.95;101658.03;4991027;28;20065;-79
2022/07/21 09:52:44;;;;;;;23.05;15.63;;;;;;;18.69;56.76;101658.91;4992416;28;20080;-78
2022/07/21 09:55:14;;;;;;;25.15;16.30;;;;;;;18.46;56.78;101654.19;4992954;28;21367;-78
2022/07/21 09:57:40;;;;;;;25.27;16.25;;;;;;;18.74;56.04;101652.47;4994101;28;20078;-77
2022/07/21 10:00:12;;;;;;;21.05;15.20;;;;;;;18.97;55.96;101651.06;4992067;28;20044;-79
2022/07/21 10:02:38;;;;;;;18.83;14.90;;;;;;;19.17;55.28;101648.00;4970226;28;20066;-79
2022/07/21 10:05:17;;;;;;;17.60;14.20;;;;;;;18.76;56.21;101656.72;4996048;28;20511;-78
2022/07/21 10:07:45;;;;;;;20.77;15.45;;;;;;;19.03;55.02;101655.97;4979155;28;20566;-79
2022/07/21 10:10:12;;;;;;;19.80;15.18;;;;;;;18.85;55.15;101661.47;4992431;28;20033;-78
2022/07/21 10:12:38;;;;;;;16.83;14.30;;;;;;;18.59;56.29;101662.22;4991359;28;20046;-77
2022/07/21 10:15:04;;;;;;;17.85;14.05;;;;;;;18.84;55.84;101661.56;4977530;28;20237;-78
2022/07/21 10:17:30;;;;;;;16.25;12.55;;;;;;;18.80;55.11;101665.34;4973862;28;20045;-78
2022/07/21 10:20:13;;;;;;;16.35;12.60;;;;;;;18.86;54.35;101664.97;4987401;28;20499;-78
2022/07/21 10:23:19;;;;;;;16.58;12.88;;;;;;;18.78;55.07;101670.72;4992534;28;20065;-81
2022/07/21 10:27:16;;;;;;;13.85;11.35;;;;;;;19.08;54.77;101669.78;4991563;28;20085;-81
2022/07/21 10:30:31;;;;;;;16.25;11.50;;;;;;;19.38;54.06;101669.59;4990098;28;20042;-81
2022/07/21 10:33:44;;;;;;;17.58;12.05;;;;;;;18.77;53.26;101666.38;4975768;28;20045;-81
2022/07/21 10:36:58;;;;;;;17.35;12.63;;;;;;;18.76;53.87;101669.97;5012562;28;20096;-79
2022/07/21 10:40:43;;;;;;;15.35;11.60;;;;;;;18.87;52.99;101667.53;4993196;28;20143;-83
2022/07/21 10:44:40;;;;;;;15.13;11.18;;;;;;;19.06;53.43;101669.03;4896400;29;20050;-81
2022/07/21 10:47:36;;;;;;;14.88;10.98;;;;;;;19.16;52.93;101664.81;4929235;28;20049;-81
2022/07/21 10:50:50;;;;;;;12.60;10.35;;;;;;;19.44;52.83;101668.34;4975338;28;20038;-81
2022/07/21 10:53:39;;;;;;;18.13;12.38;;;;;;;19.34;52.91;101659.28;4946766;28;20045;-83
2022/07/21 10:56:07;;;;;;;15.27;11.70;;;;;;;19.66;51.92;101671.31;4990849;28;20096;-79
2022/07/21 10:58:55;;;;;;;15.88;11.93;;;;;;;19.55;51.59;101657.94;4957030;28;20053;-80
2022/07/21 11:01:24;;;;;;;15.45;11.20;;;;;;;19.60;51.56;101661.13;4961592;28;20050;-84
2022/07/21 11:04:27;;;;;;;18.73;13.30;;;;;;;19.57;51.93;101660.47;4923297;28;20124;-77
2022/07/21 11:06:55;;;;;;;15.95;12.73;;;;;;;19.43;52.15;101664.84;4927300;28;20033;-81
2022/07/21 11:10:01;;;;;;;14.38;12.07;;;;;;;19.51;51.77;101667.84;4962701;28;20057;-78
2022/07/21 11:12:57;;;;;;;14.15;10.73;;;;;;;19.63;53.17;101666.22;4949852;28;20843;-79
2022/07/21 11:15:55;;;;;;;17.73;13.75;;;;;;;19.69;52.34;101680.88;4964437;28;20047;-80
2022/07/21 11:18:23;;;;;;;17.92;13.07;;;;;;;19.77;52.87;101672.41;4952890;28;20050;-81
2022/07/21 11:21:09;;;;;;;16.20;13.40;;;;;;;19.95;52.66;101679.13;4955526;28;20039;-81
2022/07/21 11:23:47;;;;;;;23.23;15.15;;;;;;;19.28;53.43;101674.66;4973670;28;20060;-82
2022/07/21 11:26:16;;;;;;;22.60;14.00;;;;;;;19.78;53.49;101676.75;4977733;28;20031;-79